createdAt,value
2019-03-06T00:01:08.372Z,11.90
2019-03-06T00:02:15.730Z,12.30
2019-03-06T00:03:26.496Z,11.95
2019-03-06T00:04:42.318Z,10.95
2019-03-06T00:05:49.637Z,11.93
2019-03-06T00:07:08.553Z,12.80
2019-03-06T00:08:15.542Z,11.90
2019-03-06T00:09:36.800Z,12.90
2019-03-06T00:10:44.999Z,12.00
2019-03-06T00:13:24.028Z,12.60
2019-03-06T00:15:01.232Z,11.97
2019-03-06T00:16:03.668Z,12.65
2019-03-06T00:17:09.727Z,12.18
2019-03-06T00:18:14.307Z,12.18
2019-03-06T00:19:21.340Z,12.25
2019-03-06T00:20:28.376Z,11.38
2019-03-06T00:21:35.924Z,12.58
2019-03-06T00:22:44.780Z,12.07
2019-03-06T00:23:49.687Z,12.55
2019-03-06T00:24:56.184Z,12.33
2019-03-06T00:26:16.033Z,11.75
2019-03-06T00:27:16.566Z,11.45
2019-03-06T00:28:26.277Z,11.48
2019-03-06T00:29:33.152Z,12.58
2019-03-06T00:30:39.982Z,11.83
2019-03-06T00:32:18.786Z,12.33
2019-03-06T00:33:13.744Z,12.68
2019-03-06T00:34:18.954Z,11.88
2019-03-06T00:35:25.132Z,13.45
2019-03-06T00:36:36.375Z,12.98
2019-03-06T00:37:42.889Z,12.75
2019-03-06T00:38:51.412Z,12.68
2019-03-06T00:40:06.609Z,12.35
2019-03-06T00:41:24.683Z,12.35
2019-03-06T00:42:34.360Z,13.20
2019-03-06T00:43:42.886Z,10.32
2019-03-06T00:45:00.711Z,12.28
2019-03-06T00:46:30.089Z,12.98
2019-03-06T00:52:09.778Z,12.78
2019-03-06T00:52:14.089Z,12.10
2019-03-06T00:52:59.341Z,12.85
2019-03-06T00:54:30.586Z,12.85
2019-03-06T00:55:56.423Z,11.97
2019-03-06T00:57:04.426Z,12.07
2019-03-06T00:58:21.907Z,11.48
2019-03-06T00:59:28.203Z,13.88
2019-03-06T01:00:36.055Z,13.20
2019-03-06T01:01:49.601Z,12.15
2019-03-06T01:02:53.775Z,12.95
2019-03-06T01:05:21.429Z,11.65
2019-03-06T01:06:44.141Z,11.70
2019-03-06T01:07:51.129Z,12.95
2019-03-06T01:09:10.474Z,13.22
2019-03-06T01:10:19.681Z,12.65
2019-03-06T01:11:30.689Z,12.40
2019-03-06T01:13:54.067Z,13.00
2019-03-06T01:15:01.181Z,12.43
2019-03-06T01:16:28.693Z,13.93
2019-03-06T01:17:26.131Z,13.58
2019-03-06T01:18:49.738Z,12.75
2019-03-06T01:19:50.355Z,13.22
2019-03-06T01:21:02.002Z,13.65
2019-03-06T01:22:19.679Z,12.55
2019-03-06T01:23:28.842Z,13.10
2019-03-06T01:24:41.753Z,12.80
2019-03-06T01:26:04.883Z,13.72
2019-03-06T01:27:11.461Z,12.78
2019-03-06T01:28:20.161Z,13.98
2019-03-06T01:29:34.931Z,14.20
2019-03-06T01:31:01.049Z,14.98
2019-03-06T01:32:02.984Z,12.82
2019-03-06T01:34:55.443Z,13.15
2019-03-06T01:36:10.434Z,13.35
2019-03-06T01:37:39.983Z,13.62
2019-03-06T01:38:11.311Z,12.88
2019-03-06T01:38:54.642Z,13.75
2019-03-06T01:40:30.073Z,14.40
2019-03-06T01:42:00.051Z,13.78
2019-03-06T01:43:32.352Z,14.18
2019-03-06T01:44:47.247Z,14.35
2019-03-06T01:45:46.844Z,14.15
2019-03-06T01:48:31.898Z,14.58
2019-03-06T01:51:16.163Z,13.83
2019-03-06T01:52:25.729Z,14.98
2019-03-06T01:53:41.682Z,14.58
2019-03-06T01:54:50.133Z,15.85
2019-03-06T01:56:00.130Z,15.05
2019-03-06T01:57:09.247Z,14.58
2019-03-06T01:58:18.656Z,15.55
2019-03-06T01:59:38.526Z,16.32
2019-03-06T02:00:43.740Z,15.15
2019-03-06T02:02:40.008Z,14.60
2019-03-06T02:03:00.081Z,16.32
2019-03-06T02:04:24.965Z,15.40
2019-03-06T02:05:21.347Z,15.18
2019-03-06T02:06:42.233Z,15.88
2019-03-06T02:07:43.154Z,15.90
2019-03-06T02:08:59.304Z,16.05
2019-03-06T02:10:06.080Z,15.68
2019-03-06T02:11:13.397Z,16.52
2019-03-06T02:12:25.794Z,14.85
2019-03-06T02:13:35.703Z,15.68
2019-03-06T02:14:44.495Z,16.27
2019-03-06T02:16:12.447Z,16.07
2019-03-06T02:17:12.311Z,15.85
2019-03-06T02:18:26.451Z,16.30
2019-03-06T02:19:28.888Z,16.23
2019-03-06T02:20:39.417Z,15.48
2019-03-06T02:21:46.697Z,16.02
2019-03-06T02:22:54.088Z,15.40
2019-03-06T02:24:07.593Z,16.48
2019-03-06T02:25:17.270Z,15.93
2019-03-06T02:26:23.600Z,15.75
2019-03-06T02:27:34.700Z,16.02
2019-03-06T02:28:37.336Z,16.37
2019-03-06T02:29:43.862Z,15.93
2019-03-06T02:30:52.851Z,15.70
2019-03-06T02:32:14.117Z,16.17
2019-03-06T02:33:25.735Z,15.95
2019-03-06T02:34:33.972Z,16.27
2019-03-06T02:35:43.763Z,16.00
2019-03-06T02:36:52.707Z,15.88
2019-03-06T02:38:01.492Z,15.98
2019-03-06T02:39:16.730Z,16.87
2019-03-06T02:40:23.928Z,16.07
2019-03-06T02:41:33.507Z,17.35
2019-03-06T02:42:42.146Z,17.30
2019-03-06T02:43:54.308Z,16.62
2019-03-06T02:45:01.799Z,14.85
2019-03-06T02:47:46.274Z,16.55
2019-03-06T02:49:08.247Z,15.55
2019-03-06T02:50:17.451Z,17.02
2019-03-06T02:51:29.480Z,16.10
2019-03-06T02:52:52.645Z,16.87
2019-03-06T02:53:58.185Z,16.57
2019-03-06T02:55:06.617Z,16.15
2019-03-06T02:56:23.896Z,17.48
2019-03-06T02:57:28.492Z,17.40
2019-03-06T02:58:50.942Z,18.95
2019-03-06T03:00:07.268Z,16.50
2019-03-06T03:01:32.814Z,17.52
2019-03-06T03:02:41.629Z,16.65
2019-03-06T03:04:16.831Z,17.60
2019-03-06T03:05:35.462Z,17.35
2019-03-06T03:06:51.509Z,16.85
2019-03-06T03:08:08.833Z,18.17
2019-03-06T03:09:35.449Z,17.95
2019-03-06T03:10:40.789Z,17.32
2019-03-06T03:11:50.353Z,17.65
2019-03-06T03:13:00.490Z,18.15
2019-03-06T03:16:16.127Z,17.82
2019-03-06T03:17:03.869Z,18.23
2019-03-06T03:18:11.152Z,17.90
2019-03-06T03:19:17.905Z,18.05
2019-03-06T03:20:23.768Z,19.15
2019-03-06T03:21:34.759Z,18.42
2019-03-06T03:22:40.236Z,18.10
2019-03-06T03:23:47.327Z,17.15
2019-03-06T03:25:03.622Z,19.32
2019-03-06T03:26:30.329Z,19.25
2019-03-06T03:27:30.050Z,17.40
2019-03-06T03:28:38.256Z,17.75
2019-03-06T03:29:46.447Z,17.40
2019-03-06T03:30:59.278Z,17.98
2019-03-06T03:32:08.879Z,18.70
2019-03-06T03:33:21.570Z,17.55
2019-03-06T03:35:50.090Z,18.75
2019-03-06T03:36:59.187Z,18.17
2019-03-06T03:38:09.348Z,18.87
2019-03-06T03:39:17.120Z,17.40
2019-03-06T03:40:25.260Z,16.07
2019-03-06T03:41:30.412Z,10.93
2019-03-06T03:42:37.614Z,12.40
2019-03-06T03:43:47.795Z,9.98
2019-03-06T03:44:56.069Z,9.30
2019-03-06T03:46:26.485Z,6.70
2019-03-06T03:47:13.865Z,6.70
2019-03-06T03:48:19.889Z,6.22
2019-03-06T03:49:34.029Z,6.40
2019-03-06T03:50:41.873Z,5.87
2019-03-06T03:51:47.932Z,6.00
2019-03-06T03:53:01.045Z,5.62
2019-03-06T03:54:16.880Z,5.53
2019-03-06T03:55:41.644Z,4.12
2019-03-06T03:56:51.669Z,4.22
2019-03-06T03:57:57.023Z,4.15
2019-03-06T03:59:02.824Z,3.55
2019-03-06T04:00:13.161Z,2.90
2019-03-06T04:02:29.711Z,2.62
2019-03-06T04:03:29.087Z,2.52
2019-03-06T04:04:39.193Z,2.47
2019-03-06T04:05:53.270Z,2.20
2019-03-06T04:06:58.068Z,2.17
2019-03-06T04:08:08.514Z,2.30
2019-03-06T04:09:07.072Z,2.37
2019-03-06T04:10:35.970Z,2.33
2019-03-06T04:13:00.635Z,2.45
2019-03-06T04:14:20.639Z,2.30
2019-03-06T04:16:47.891Z,1.75
2019-03-06T04:17:55.780Z,2.22
2019-03-06T04:19:11.131Z,2.20
2019-03-06T04:20:18.761Z,2.05
2019-03-06T04:21:31.686Z,2.20
2019-03-06T04:22:37.701Z,2.40
2019-03-06T04:23:48.747Z,2.25
2019-03-06T04:24:55.934Z,2.50
2019-03-06T04:26:02.827Z,2.72
2019-03-06T04:27:18.263Z,2.25
2019-03-06T04:28:30.178Z,2.42
2019-03-06T04:29:38.976Z,2.75
2019-03-06T04:30:47.107Z,2.45
2019-03-06T04:31:54.335Z,2.40
2019-03-06T04:33:00.313Z,2.40
2019-03-06T04:34:06.975Z,2.35
2019-03-06T04:35:19.257Z,2.58
2019-03-06T04:36:29.278Z,2.52
2019-03-06T04:38:24.012Z,2.05
2019-03-06T04:38:48.963Z,2.40
2019-03-06T04:39:58.694Z,2.30
2019-03-06T04:41:12.250Z,3.05
2019-03-06T04:42:23.938Z,2.58
2019-03-06T04:43:31.196Z,2.62
2019-03-06T04:44:37.828Z,2.40
2019-03-06T04:46:01.081Z,2.25
2019-03-06T04:46:57.193Z,2.95
2019-03-06T04:48:03.598Z,2.60
2019-03-06T04:49:09.405Z,2.95
2019-03-06T04:50:17.912Z,2.60
2019-03-06T04:51:23.775Z,2.33
2019-03-06T04:52:30.230Z,2.30
2019-03-06T04:53:38.359Z,2.60
2019-03-06T04:54:44.090Z,2.58
2019-03-06T04:55:53.172Z,3.00
2019-03-06T04:56:59.358Z,2.75
2019-03-06T04:58:06.335Z,2.40
2019-03-06T04:59:13.251Z,2.37
2019-03-06T05:00:24.308Z,2.50
2019-03-06T05:01:30.232Z,2.33
2019-03-06T05:02:46.249Z,2.58
2019-03-06T05:03:45.320Z,2.87
2019-03-06T05:04:56.740Z,2.87
2019-03-06T05:06:06.237Z,2.95
2019-03-06T05:07:14.945Z,3.53
2019-03-06T05:08:22.846Z,2.90
2019-03-06T05:09:33.804Z,3.12
2019-03-06T05:10:38.072Z,3.02
2019-03-06T05:11:48.293Z,2.95
2019-03-06T05:12:54.409Z,2.83
2019-03-06T05:14:00.463Z,2.92
2019-03-06T05:15:14.298Z,3.00
2019-03-06T05:16:22.066Z,2.70
2019-03-06T05:17:44.590Z,2.70
2019-03-06T05:18:54.004Z,2.90
2019-03-06T05:19:58.383Z,2.77
2019-03-06T05:21:11.105Z,2.77
2019-03-06T05:22:30.420Z,2.40
2019-03-06T05:23:48.483Z,3.05
2019-03-06T05:24:49.401Z,2.80
2019-03-06T05:26:23.642Z,2.87
2019-03-06T05:27:14.580Z,3.40
2019-03-06T05:28:24.234Z,3.80
2019-03-06T05:30:17.299Z,2.47
2019-03-06T05:31:28.366Z,3.85
2019-03-06T05:32:38.810Z,3.58
2019-03-06T05:33:46.434Z,3.65
2019-03-06T05:35:10.419Z,3.92
2019-03-06T05:36:33.009Z,3.98
2019-03-06T05:38:13.779Z,4.30
2019-03-06T05:39:32.566Z,3.80
2019-03-06T05:40:48.932Z,4.00
2019-03-06T05:41:55.694Z,3.98
2019-03-06T05:43:18.235Z,3.83
2019-03-06T05:44:32.537Z,3.40
2019-03-06T05:45:49.788Z,3.55
2019-03-06T05:46:56.438Z,3.80
2019-03-06T05:49:13.670Z,3.42
2019-03-06T05:49:51.563Z,2.98
2019-03-06T05:51:09.970Z,3.33
2019-03-06T05:51:43.860Z,3.27
2019-03-06T05:53:10.894Z,3.55
2019-03-06T05:54:13.772Z,3.60
2019-03-06T05:56:02.414Z,3.15
2019-03-06T05:57:09.507Z,3.20
2019-03-06T06:00:00.219Z,3.35
2019-03-06T06:01:22.972Z,3.30
2019-03-06T06:02:19.058Z,4.85
2019-03-06T06:03:36.628Z,3.50
2019-03-06T06:04:59.649Z,3.35
2019-03-06T06:08:34.620Z,3.80
2019-03-06T06:09:20.358Z,4.17
2019-03-06T06:10:09.827Z,3.95
2019-03-06T06:11:40.293Z,3.80
2019-03-06T06:12:55.314Z,3.75
2019-03-06T06:13:56.540Z,4.40
2019-03-06T06:17:58.088Z,4.03
2019-03-06T06:19:14.898Z,4.03
2019-03-06T06:20:36.614Z,3.83
2019-03-06T06:22:39.001Z,3.83
2019-03-06T06:24:45.054Z,3.60
2019-03-06T06:25:02.669Z,4.03
2019-03-06T06:26:12.250Z,4.22
2019-03-06T06:27:17.513Z,3.90
2019-03-06T06:28:46.105Z,3.80
2019-03-06T06:30:01.885Z,3.77
2019-03-06T06:31:01.412Z,4.15
2019-03-06T06:33:49.419Z,3.90
2019-03-06T06:35:01.955Z,4.25
2019-03-06T06:36:15.852Z,4.03
2019-03-06T06:38:06.242Z,4.20
2019-03-06T06:38:28.412Z,4.55
2019-03-06T06:40:24.848Z,4.28
2019-03-06T06:42:47.643Z,5.37
2019-03-06T06:43:12.956Z,4.15
2019-03-06T06:45:30.972Z,4.53
2019-03-06T06:47:52.518Z,4.55
2019-03-06T06:50:02.998Z,5.20
2019-03-06T06:52:01.068Z,4.97
2019-03-06T06:53:26.606Z,6.97
2019-03-06T06:54:58.479Z,5.90
2019-03-06T06:56:23.010Z,6.05
2019-03-06T06:57:36.418Z,5.65
2019-03-06T07:01:06.829Z,5.87
2019-03-06T07:02:44.514Z,5.87
2019-03-06T07:04:38.451Z,5.90
2019-03-06T07:07:48.750Z,7.37
2019-03-06T07:09:03.091Z,5.83
2019-03-06T07:10:32.926Z,5.70
2019-03-06T07:11:44.891Z,5.70
2019-03-06T07:13:06.402Z,5.70
2019-03-06T07:14:14.899Z,5.85
2019-03-06T07:17:15.603Z,5.17
2019-03-06T07:18:53.388Z,5.72
2019-03-06T07:20:09.674Z,6.20
2019-03-06T07:21:29.258Z,6.28
2019-03-06T07:22:41.416Z,7.85
2019-03-06T07:23:52.558Z,6.60
2019-03-06T07:25:01.054Z,6.80
2019-03-06T07:26:22.376Z,7.08
2019-03-06T07:29:04.652Z,6.00
2019-03-06T07:29:30.112Z,5.95
2019-03-06T07:30:31.956Z,6.35
2019-03-06T07:33:21.019Z,6.10
2019-03-06T07:34:53.393Z,6.12
2019-03-06T07:36:19.159Z,5.85
2019-03-06T07:37:29.818Z,6.20
2019-03-06T07:41:34.460Z,5.87
2019-03-06T07:44:30.070Z,5.78
2019-03-06T07:45:49.432Z,6.45
2019-03-06T07:47:00.784Z,6.83
2019-03-06T07:50:07.144Z,6.08
2019-03-06T07:51:06.434Z,5.67
2019-03-06T07:52:19.269Z,6.00
2019-03-06T07:54:00.976Z,5.83
2019-03-06T07:55:10.321Z,7.17
2019-03-06T07:56:23.656Z,6.90
2019-03-06T07:57:36.588Z,6.62
2019-03-06T07:59:00.274Z,13.95
2019-03-06T08:00:06.286Z,10.15
2019-03-06T08:01:17.056Z,8.05
2019-03-06T08:02:54.605Z,8.10
2019-03-06T08:04:10.647Z,10.68
2019-03-06T08:05:15.038Z,10.78
2019-03-06T08:06:21.610Z,9.70
2019-03-06T08:07:26.202Z,12.35
2019-03-06T08:08:31.761Z,10.60
2019-03-06T08:09:38.939Z,10.70
2019-03-06T08:10:47.216Z,10.70
2019-03-06T08:11:56.932Z,11.45
2019-03-06T08:13:10.396Z,11.88
2019-03-06T08:14:35.272Z,11.50
2019-03-06T08:15:41.090Z,11.70
2019-03-06T08:16:47.476Z,11.93
2019-03-06T08:18:09.018Z,12.13
2019-03-06T08:19:23.947Z,11.78
2019-03-06T08:20:41.227Z,12.70
2019-03-06T08:21:47.106Z,12.80
2019-03-06T08:23:05.037Z,13.40
2019-03-06T08:24:27.839Z,13.88
2019-03-06T08:25:48.643Z,14.70
2019-03-06T08:27:03.022Z,13.95
2019-03-06T08:28:09.055Z,13.88
2019-03-06T08:29:14.378Z,14.23
2019-03-06T08:30:20.818Z,16.27
2019-03-06T08:31:29.351Z,17.92
2019-03-06T08:32:33.645Z,16.73
2019-03-06T08:33:38.997Z,17.10
2019-03-06T08:34:45.007Z,17.92
2019-03-06T08:35:52.146Z,17.45
2019-03-06T08:37:00.053Z,17.60
2019-03-06T08:38:09.093Z,17.50
2019-03-06T08:39:20.268Z,22.32
2019-03-06T08:40:31.054Z,33.58
2019-03-06T08:41:45.502Z,26.45
2019-03-06T08:42:52.642Z,19.85
2019-03-06T08:44:01.974Z,20.82
2019-03-06T08:45:08.559Z,19.27
2019-03-06T08:46:19.925Z,20.02
2019-03-06T08:47:31.805Z,20.45
2019-03-06T08:48:39.200Z,19.37
2019-03-06T08:49:51.891Z,19.75
2019-03-06T08:50:58.289Z,24.30
2019-03-06T08:52:14.127Z,24.02
2019-03-06T08:53:29.818Z,22.13
2019-03-06T08:54:40.468Z,23.27
2019-03-06T08:57:26.876Z,22.22
2019-03-06T08:58:34.380Z,22.60
2019-03-06T08:59:45.914Z,23.25
2019-03-06T09:01:09.516Z,23.27
2019-03-06T09:02:15.959Z,23.60
2019-03-06T09:03:31.708Z,24.15
2019-03-06T09:06:19.957Z,23.35
2019-03-06T09:07:27.278Z,23.30
2019-03-06T09:08:50.583Z,26.20
2019-03-06T09:10:14.762Z,24.70
2019-03-06T09:11:33.796Z,25.08
2019-03-06T09:12:50.122Z,25.65
2019-03-06T09:14:11.063Z,25.62
2019-03-06T09:15:23.885Z,24.72
2019-03-06T09:16:29.991Z,25.90
2019-03-06T09:17:36.043Z,25.05
2019-03-06T09:18:44.497Z,27.30
2019-03-06T09:19:53.120Z,27.07
2019-03-06T09:21:02.131Z,27.95
2019-03-06T09:22:15.865Z,26.20
2019-03-06T09:23:30.723Z,27.17
2019-03-06T09:24:47.045Z,28.20
2019-03-06T09:26:04.847Z,29.07
2019-03-06T09:27:11.000Z,28.80
2019-03-06T09:28:20.665Z,28.55
2019-03-06T09:29:45.183Z,28.65
2019-03-06T09:30:53.691Z,29.32
2019-03-06T09:32:05.145Z,27.80
2019-03-06T09:33:11.084Z,28.90
2019-03-06T09:34:17.178Z,28.92
2019-03-06T09:35:51.430Z,28.57
2019-03-06T09:37:07.545Z,30.40
2019-03-06T09:38:32.487Z,31.30
2019-03-06T09:39:45.651Z,30.95
2019-03-06T09:40:58.487Z,29.40
2019-03-06T09:42:18.560Z,29.42
2019-03-06T09:43:27.893Z,29.90
2019-03-06T09:44:37.389Z,32.17
2019-03-06T09:45:54.971Z,32.70
2019-03-06T09:47:17.383Z,30.82
2019-03-06T09:48:41.033Z,32.03
2019-03-06T09:49:53.427Z,31.45
2019-03-06T09:51:10.123Z,31.48
2019-03-06T09:52:23.803Z,34.13
2019-03-06T09:53:47.434Z,32.13
2019-03-06T09:54:55.081Z,32.80
2019-03-06T09:56:02.949Z,34.25
2019-03-06T09:57:22.266Z,35.60
2019-03-06T09:58:34.451Z,32.25
2019-03-06T09:59:52.603Z,32.28
2019-03-06T10:01:10.367Z,31.17
2019-03-06T10:02:38.129Z,31.25
2019-03-06T10:03:52.879Z,30.90
2019-03-06T10:06:52.020Z,30.32
2019-03-06T10:08:15.199Z,31.90
2019-03-06T10:09:40.868Z,32.45
2019-03-06T10:10:57.757Z,34.05
2019-03-06T10:12:11.159Z,34.35
2019-03-06T10:13:18.817Z,34.30
2019-03-06T10:14:35.329Z,34.55
2019-03-06T10:15:56.527Z,33.65
2019-03-06T10:17:18.398Z,32.63
2019-03-06T10:18:26.846Z,33.38
2019-03-06T10:19:38.237Z,32.95
2019-03-06T10:20:44.603Z,34.85
2019-03-06T10:21:52.471Z,35.75
2019-03-06T10:22:59.508Z,33.90
2019-03-06T10:24:06.926Z,36.15
2019-03-06T10:25:12.002Z,33.08
2019-03-06T10:26:16.237Z,33.13
2019-03-06T10:27:23.400Z,32.85
2019-03-06T10:28:29.193Z,33.08
2019-03-06T10:29:37.766Z,31.95
2019-03-06T10:30:44.158Z,30.52
2019-03-06T10:32:00.347Z,31.33
2019-03-06T10:33:02.768Z,31.62
2019-03-06T10:34:30.525Z,30.77
2019-03-06T10:35:19.982Z,30.80
2019-03-06T10:36:27.497Z,29.67
2019-03-06T10:37:37.515Z,26.90
2019-03-06T10:38:43.862Z,29.67
2019-03-06T10:40:08.547Z,29.10
2019-03-06T10:41:15.049Z,30.55
2019-03-06T10:42:22.082Z,28.47
2019-03-06T10:43:36.021Z,28.42
2019-03-06T10:44:40.322Z,26.02
2019-03-06T10:46:14.267Z,26.15
2019-03-06T10:47:15.153Z,26.85
2019-03-06T10:48:21.609Z,25.40
2019-03-06T10:49:36.365Z,25.55
2019-03-06T10:50:44.642Z,25.35
2019-03-06T10:51:52.702Z,25.70
2019-03-06T10:53:01.461Z,25.02
2019-03-06T10:54:06.094Z,24.05
2019-03-06T10:55:14.597Z,24.10
2019-03-06T10:56:19.842Z,24.90
2019-03-06T10:57:26.886Z,23.80
2019-03-06T10:58:32.369Z,22.62
2019-03-06T10:59:38.170Z,23.47
2019-03-06T11:00:46.090Z,25.95
2019-03-06T11:01:54.422Z,25.72
2019-03-06T11:03:00.111Z,27.40
2019-03-06T11:04:21.091Z,26.50
2019-03-06T11:05:34.625Z,26.57
2019-03-06T11:06:42.893Z,23.90
2019-03-06T11:07:49.928Z,25.43
2019-03-06T11:08:59.634Z,24.20
2019-03-06T11:10:23.070Z,26.77
2019-03-06T11:11:16.597Z,24.32
2019-03-06T11:12:36.723Z,27.85
2019-03-06T11:13:27.764Z,26.95
2019-03-06T11:14:33.397Z,26.42
2019-03-06T11:15:42.560Z,25.80
2019-03-06T11:16:54.621Z,27.45
2019-03-06T11:18:01.429Z,26.17
2019-03-06T11:19:09.786Z,26.90
2019-03-06T11:20:30.079Z,26.42
2019-03-06T11:21:34.557Z,26.68
2019-03-06T11:22:39.124Z,26.00
2019-03-06T11:23:47.339Z,26.95
2019-03-06T11:24:54.983Z,26.65
2019-03-06T11:26:01.985Z,26.87
2019-03-06T11:27:09.197Z,27.00
2019-03-06T11:28:15.922Z,27.02
2019-03-06T11:29:24.159Z,26.73
2019-03-06T11:30:49.775Z,25.37
2019-03-06T11:31:55.995Z,26.85
2019-03-06T11:33:04.937Z,26.52
2019-03-06T11:34:10.011Z,26.73
2019-03-06T11:35:19.048Z,25.12
2019-03-06T11:36:26.170Z,30.65
2019-03-06T11:37:35.263Z,27.65
2019-03-06T11:38:39.771Z,44.13
2019-03-06T11:39:46.537Z,39.95
2019-03-06T11:40:51.424Z,36.83
2019-03-06T11:41:59.107Z,27.20
2019-03-06T11:43:03.912Z,24.82
2019-03-06T11:44:08.287Z,26.05
2019-03-06T11:45:19.899Z,26.42
2019-03-06T11:46:25.253Z,25.97
2019-03-06T11:47:29.636Z,24.72
2019-03-06T11:48:35.889Z,24.05
2019-03-06T11:49:41.631Z,23.25
2019-03-06T11:50:49.252Z,23.52
2019-03-06T11:51:56.491Z,23.27
2019-03-06T11:53:03.892Z,22.40
2019-03-06T11:54:11.741Z,21.00
2019-03-06T11:55:19.041Z,21.27
2019-03-06T11:56:23.874Z,21.35
2019-03-06T11:57:29.380Z,20.80
2019-03-06T11:58:36.449Z,21.77
2019-03-06T11:59:40.819Z,21.02
2019-03-06T12:00:50.231Z,20.30
2019-03-06T12:01:59.814Z,19.82
2019-03-06T12:03:10.381Z,19.25
2019-03-06T12:04:14.881Z,18.77
2019-03-06T12:05:22.291Z,19.57
2019-03-06T12:06:27.415Z,19.92
2019-03-06T12:07:31.795Z,20.27
2019-03-06T12:08:42.869Z,17.10
2019-03-06T12:09:47.603Z,17.37
2019-03-06T12:10:55.370Z,16.73
2019-03-06T12:12:01.920Z,16.93
2019-03-06T12:13:09.230Z,17.80
2019-03-06T12:14:13.479Z,17.48
2019-03-06T12:15:17.786Z,16.42
2019-03-06T12:16:22.130Z,15.38
2019-03-06T12:17:26.304Z,15.20
2019-03-06T12:18:31.620Z,15.13
2019-03-06T12:19:38.979Z,15.10
2019-03-06T12:20:45.151Z,15.40
2019-03-06T12:21:51.650Z,15.08
2019-03-06T12:22:56.202Z,14.75
2019-03-06T12:24:05.133Z,15.05
2019-03-06T12:25:13.932Z,13.60
2019-03-06T12:26:25.103Z,15.63
2019-03-06T12:27:35.626Z,15.60
2019-03-06T12:28:40.720Z,18.37
2019-03-06T12:29:47.860Z,34.70
2019-03-06T12:30:54.374Z,17.95
2019-03-06T12:32:06.804Z,16.32
2019-03-06T12:33:20.202Z,15.93
2019-03-06T12:34:26.548Z,15.60
2019-03-06T12:35:34.199Z,16.20
2019-03-06T12:36:38.504Z,15.15
2019-03-06T12:37:47.127Z,14.10
2019-03-06T12:38:54.020Z,14.63
2019-03-06T12:39:58.462Z,14.40
2019-03-06T12:41:09.972Z,14.25
2019-03-06T12:42:16.670Z,14.65
2019-03-06T12:43:23.029Z,14.73
2019-03-06T12:44:30.100Z,14.07
2019-03-06T12:45:36.568Z,15.10
2019-03-06T12:46:42.868Z,15.32
2019-03-06T12:47:55.330Z,14.68
2019-03-06T12:48:59.748Z,14.33
2019-03-06T12:50:09.004Z,15.18
2019-03-06T12:51:15.744Z,13.45
2019-03-06T12:52:20.350Z,13.68
2019-03-06T12:53:28.069Z,14.30
2019-03-06T12:54:34.089Z,14.83
2019-03-06T12:55:39.896Z,13.65
2019-03-06T12:56:45.675Z,13.98
2019-03-06T12:57:59.130Z,13.93
2019-03-06T12:59:03.808Z,14.38
2019-03-06T13:00:26.040Z,14.50
2019-03-06T13:01:31.194Z,13.25
2019-03-06T13:02:37.556Z,13.00
2019-03-06T13:03:44.698Z,13.45
2019-03-06T13:04:53.291Z,14.13
2019-03-06T13:05:57.679Z,13.20
2019-03-06T13:07:04.705Z,13.68
2019-03-06T13:08:19.222Z,13.28
2019-03-06T13:09:17.292Z,12.60
2019-03-06T13:10:24.710Z,13.08
2019-03-06T13:11:29.124Z,12.68
2019-03-06T13:12:38.117Z,12.90
2019-03-06T13:13:41.713Z,12.75
2019-03-06T13:14:47.943Z,12.85
2019-03-06T13:15:54.911Z,13.28
2019-03-06T13:17:01.714Z,13.30
2019-03-06T13:18:06.750Z,12.63
2019-03-06T13:19:13.872Z,13.18
2019-03-06T13:20:20.653Z,13.28
2019-03-06T13:21:26.463Z,13.13
2019-03-06T13:22:32.319Z,12.70
2019-03-06T13:23:36.777Z,13.90
2019-03-06T13:24:42.762Z,14.00
2019-03-06T13:25:47.023Z,13.35
2019-03-06T13:26:51.328Z,13.00
2019-03-06T13:27:59.679Z,12.75
2019-03-06T13:29:06.666Z,13.40
2019-03-06T13:30:15.708Z,12.68
2019-03-06T13:31:20.628Z,12.90
2019-03-06T13:32:26.781Z,13.28
2019-03-06T13:33:33.710Z,12.65
2019-03-06T13:34:39.551Z,12.55
2019-03-06T13:35:46.852Z,12.60
2019-03-06T13:36:51.159Z,13.05
2019-03-06T13:37:59.368Z,13.08
2019-03-06T13:39:07.049Z,13.28
2019-03-06T13:40:18.212Z,14.35
2019-03-06T13:41:21.735Z,12.82
2019-03-06T13:42:26.714Z,11.80
2019-03-06T13:43:33.626Z,11.85
2019-03-06T13:44:41.190Z,11.60
2019-03-06T13:45:47.110Z,11.83
2019-03-06T13:46:55.234Z,10.90
2019-03-06T13:49:33.025Z,11.55
2019-03-06T13:51:04.072Z,11.55
2019-03-06T13:51:58.440Z,10.80
2019-03-06T13:53:05.712Z,10.98
2019-03-06T13:54:11.659Z,10.53
2019-03-06T13:55:20.816Z,11.35
2019-03-06T13:56:39.022Z,11.33
2019-03-06T14:02:18.682Z,15.15
2019-03-06T14:03:34.114Z,12.40
2019-03-06T14:04:40.860Z,13.48
2019-03-06T14:05:46.484Z,13.15
2019-03-06T14:06:52.643Z,11.55
2019-03-06T14:08:04.135Z,16.02
2019-03-06T14:10:23.601Z,11.18
2019-03-06T14:11:23.730Z,11.63
2019-03-06T14:12:29.576Z,10.48
2019-03-06T14:13:34.801Z,10.15
2019-03-06T14:14:39.073Z,11.60
2019-03-06T14:15:53.666Z,10.48
2019-03-06T14:16:56.639Z,10.43
2019-03-06T14:18:04.936Z,11.08
2019-03-06T14:19:11.648Z,9.90
2019-03-06T14:20:21.412Z,10.13
2019-03-06T14:21:26.640Z,10.32
2019-03-06T14:22:31.581Z,9.80
2019-03-06T14:23:35.911Z,10.18
2019-03-06T14:24:40.034Z,10.88
2019-03-06T14:25:44.448Z,10.43
2019-03-06T14:26:50.940Z,10.35
2019-03-06T14:27:55.190Z,11.85
2019-03-06T14:28:59.966Z,10.63
2019-03-06T14:30:14.556Z,11.15
2019-03-06T14:31:20.589Z,10.80
2019-03-06T14:32:26.229Z,9.53
2019-03-06T14:33:30.485Z,10.75
2019-03-06T14:34:36.689Z,12.03
2019-03-06T14:35:41.077Z,10.55
2019-03-06T14:36:46.471Z,10.55
2019-03-06T14:37:51.707Z,10.68
2019-03-06T14:38:56.017Z,11.90
2019-03-06T14:40:09.451Z,12.13
2019-03-06T14:41:07.876Z,10.63
2019-03-06T14:42:12.573Z,11.12
2019-03-06T14:43:20.763Z,11.22
2019-03-06T14:44:25.993Z,10.50
2019-03-06T14:45:32.460Z,12.03
2019-03-06T14:46:39.248Z,11.85
2019-03-06T14:47:46.724Z,11.00
2019-03-06T14:48:57.566Z,11.00
2019-03-06T14:50:04.330Z,11.10
2019-03-06T14:51:13.971Z,10.55
2019-03-06T14:52:22.158Z,9.65
2019-03-06T14:53:31.616Z,9.43
2019-03-06T14:54:35.984Z,10.63
2019-03-06T14:55:40.540Z,10.63
2019-03-06T14:56:46.359Z,10.13
2019-03-06T14:57:53.657Z,12.60
2019-03-06T14:59:02.093Z,12.05
2019-03-06T15:00:18.089Z,12.30
2019-03-06T15:01:23.920Z,10.95
2019-03-06T15:02:28.434Z,10.68
2019-03-06T15:03:32.808Z,11.38
2019-03-06T15:04:39.572Z,10.55
2019-03-06T15:05:47.573Z,10.82
2019-03-06T15:06:54.534Z,10.72
2019-03-06T15:08:09.630Z,10.45
2019-03-06T15:09:19.789Z,11.97
2019-03-06T15:10:27.034Z,10.60
2019-03-06T15:11:33.878Z,11.70
2019-03-06T15:12:38.334Z,11.00
2019-03-06T15:13:42.600Z,11.43
2019-03-06T15:14:48.238Z,10.53
2019-03-06T15:15:54.907Z,10.45
2019-03-06T15:17:06.639Z,10.53
2019-03-06T15:18:15.406Z,10.13
2019-03-06T15:19:21.295Z,9.65
2019-03-06T15:20:28.746Z,12.85
2019-03-06T15:21:40.184Z,26.52
2019-03-06T15:22:50.382Z,13.05
2019-03-06T15:23:54.829Z,11.88
2019-03-06T15:25:03.810Z,12.07
2019-03-06T15:26:11.414Z,11.10
2019-03-06T15:27:17.087Z,10.90
2019-03-06T15:28:24.704Z,10.30
2019-03-06T15:29:29.613Z,9.08
2019-03-06T15:30:37.050Z,10.48
2019-03-06T15:31:41.998Z,10.13
2019-03-06T15:32:47.180Z,9.85
2019-03-06T15:33:51.503Z,10.93
2019-03-06T15:34:55.772Z,10.38
2019-03-06T15:36:01.527Z,10.75
2019-03-06T15:37:19.887Z,9.90
2019-03-06T15:38:25.271Z,9.93
2019-03-06T15:39:42.193Z,10.90
2019-03-06T15:40:40.612Z,10.88
2019-03-06T15:41:46.572Z,11.28
2019-03-06T15:42:51.007Z,10.80
2019-03-06T15:43:55.469Z,10.38
2019-03-06T15:44:59.811Z,11.43
2019-03-06T15:46:05.742Z,11.22
2019-03-06T15:47:10.129Z,10.05
2019-03-06T15:48:15.897Z,10.63
2019-03-06T15:49:24.106Z,10.63
2019-03-06T15:50:29.028Z,11.22
2019-03-06T15:51:34.618Z,11.22
2019-03-06T15:52:43.624Z,9.83
2019-03-06T15:53:49.708Z,9.98
2019-03-06T15:54:55.642Z,10.03
2019-03-06T15:56:02.612Z,10.75
2019-03-06T15:57:10.942Z,9.75
2019-03-06T15:58:16.809Z,9.70
2019-03-06T15:59:26.730Z,10.23
2019-03-06T16:00:45.755Z,10.85
2019-03-06T16:01:43.949Z,10.70
2019-03-06T16:02:52.430Z,9.53
2019-03-06T16:03:58.418Z,9.73
2019-03-06T16:05:06.209Z,18.67
2019-03-06T16:06:20.144Z,30.82
2019-03-06T16:07:19.169Z,22.13
2019-03-06T16:08:24.480Z,17.82
2019-03-06T16:09:30.618Z,13.80
2019-03-06T16:10:38.034Z,13.25
2019-03-06T16:11:45.755Z,11.28
2019-03-06T16:12:51.654Z,10.72
2019-03-06T16:13:56.451Z,11.73
2019-03-06T16:15:02.296Z,10.65
2019-03-06T16:16:08.648Z,10.45
2019-03-06T16:17:13.164Z,9.68